sensor_id;sensor_type;location;lat;lon;timestamp;pressure;altitude;pressure_sealevel;temperature;humidity
6389;BME280;3227;42.654;23.360;2024-03-25T00:00:33;93170.81;;;7.64;88.87
6389;BME280;3227;42.654;23.360;2024-03-25T00:03:00;93187.91;;;7.54;89.40
6389;BME280;3227;42.654;23.360;2024-03-25T00:05:27;93184.53;;;7.51;89.18
6389;BME280;3227;42.654;23.360;2024-03-25T00:07:54;93171.78;;;7.52;89.77
6389;BME280;3227;42.654;23.360;2024-03-25T00:10:19;93142.41;;;7.19;89.06
6389;BME280;3227;42.654;23.360;2024-03-25T00:12:47;93183.94;;;7.26;89.41
6389;BME280;3227;42.654;23.360;2024-03-25T00:15:13;93166.91;;;7.31;90.36
6389;BME280;3227;42.654;23.360;2024-03-25T00:17:39;93161.75;;;7.39;90.88
6389;BME280;3227;42.654;23.360;2024-03-25T00:20:06;93167.63;;;7.42;88.75
6389;BME280;3227;42.654;23.360;2024-03-25T00:22:36;93049.56;;;6.65;90.08
6389;BME280;3227;42.654;23.360;2024-03-25T00:25:02;93156.03;;;7.14;87.53
6389;BME280;3227;42.654;23.360;2024-03-25T00:27:29;93167.00;;;7.23;90.87
6389;BME280;3227;42.654;23.360;2024-03-25T00:29:55;93159.25;;;7.33;90.93
6389;BME280;3227;42.654;23.360;2024-03-25T00:32:22;93149.78;;;7.45;90.14
6389;BME280;3227;42.654;23.360;2024-03-25T00:34:47;93156.59;;;7.42;88.42
6389;BME280;3227;42.654;23.360;2024-03-25T00:40:00;93148.75;;;7.63;90.63
6389;BME280;3227;42.654;23.360;2024-03-25T00:42:26;93126.63;;;7.65;92.06
6389;BME280;3227;42.654;23.360;2024-03-25T00:44:52;93135.72;;;7.84;90.12
6389;BME280;3227;42.654;23.360;2024-03-25T00:47:19;93151.00;;;7.89;89.11
6389;BME280;3227;42.654;23.360;2024-03-25T00:49:44;93139.97;;;7.87;90.05
6389;BME280;3227;42.654;23.360;2024-03-25T00:52:11;93142.34;;;7.99;90.70
6389;BME280;3227;42.654;23.360;2024-03-25T00:54:37;93141.38;;;8.09;90.58
6389;BME280;3227;42.654;23.360;2024-03-25T00:57:05;93034.94;;;7.59;89.56
6389;BME280;3227;42.654;23.360;2024-03-25T00:59:30;93104.28;;;7.85;88.62
6389;BME280;3227;42.654;23.360;2024-03-25T01:01:57;93132.13;;;8.00;87.66
6389;BME280;3227;42.654;23.360;2024-03-25T01:04:23;93132.13;;;8.02;90.30
6389;BME280;3227;42.654;23.360;2024-03-25T01:06:49;93125.31;;;8.02;89.51
6389;BME280;3227;42.654;23.360;2024-03-25T01:09:15;93130.41;;;8.01;88.27
6389;BME280;3227;42.654;23.360;2024-03-25T01:11:42;93130.63;;;7.86;88.39
6389;BME280;3227;42.654;23.360;2024-03-25T01:14:09;93113.69;;;7.82;87.94
6389;BME280;3227;42.654;23.360;2024-03-25T01:16:36;93104.34;;;7.81;89.74
6389;BME280;3227;42.654;23.360;2024-03-25T01:19:01;93091.59;;;7.81;89.10
6389;BME280;3227;42.654;23.360;2024-03-25T01:21:28;93101.63;;;7.93;91.20
6389;BME280;3227;42.654;23.360;2024-03-25T01:23:55;93056.97;;;7.64;90.08
6389;BME280;3227;42.654;23.360;2024-03-25T01:26:22;93093.84;;;8.03;89.33
6389;BME280;3227;42.654;23.360;2024-03-25T01:28:47;93098.06;;;8.06;90.13
6389;BME280;3227;42.654;23.360;2024-03-25T01:31:15;93109.88;;;8.13;89.70
6389;BME280;3227;42.654;23.360;2024-03-25T01:33:41;93106.47;;;8.14;88.39
6389;BME280;3227;42.654;23.360;2024-03-25T01:36:08;93104.66;;;8.21;90.58
6389;BME280;3227;42.654;23.360;2024-03-25T01:38:36;93112.13;;;8.34;90.49
6389;BME280;3227;42.654;23.360;2024-03-25T01:41:09;93106.13;;;8.38;88.69
6389;BME280;3227;42.654;23.360;2024-03-25T01:43:35;93071.66;;;8.09;86.97
6389;BME280;3227;42.654;23.360;2024-03-25T01:46:02;93118.25;;;8.21;86.01
6389;BME280;3227;42.654;23.360;2024-03-25T01:48:30;93112.13;;;7.70;86.76
6389;BME280;3227;42.654;23.360;2024-03-25T01:50:56;93110.19;;;7.14;88.38
6389;BME280;3227;42.654;23.360;2024-03-25T01:53:23;93111.06;;;7.08;90.35
6389;BME280;3227;42.654;23.360;2024-03-25T01:55:52;93113.75;;;6.99;91.08
6389;BME280;3227;42.654;23.360;2024-03-25T01:58:21;93109.81;;;6.60;93.84
6389;BME280;3227;42.654;23.360;2024-03-25T02:00:48;93093.19;;;6.15;96.10
6389;BME280;3227;42.654;23.360;2024-03-25T02:03:20;93116.88;;;6.22;97.21
6389;BME280;3227;42.654;23.360;2024-03-25T02:05:50;93123.75;;;6.07;97.79
6389;BME280;3227;42.654;23.360;2024-03-25T02:08:18;93140.81;;;5.89;99.38
6389;BME280;3227;42.654;23.360;2024-03-25T02:10:46;93139.13;;;5.80;100.00
6389;BME280;3227;42.654;23.360;2024-03-25T02:13:12;93130.59;;;5.98;100.00
6389;BME280;3227;42.654;23.360;2024-03-25T02:15:40;93142.38;;;6.13;100.00
6389;BME280;3227;42.654;23.360;2024-03-25T02:18:06;93143.25;;;6.05;98.53
6389;BME280;3227;42.654;23.360;2024-03-25T02:20:33;93145.75;;;6.18;99.39
6389;BME280;3227;42.654;23.360;2024-03-25T02:23:00;93142.25;;;6.34;97.69
6389;BME280;3227;42.654;23.360;2024-03-25T02:25:27;93134.53;;;6.47;96.79
6389;BME280;3227;42.654;23.360;2024-03-25T02:27:57;93126.78;;;6.60;96.12
6389;BME280;3227;42.654;23.360;2024-03-25T02:30:24;93125.91;;;6.64;93.78
6389;BME280;3227;42.654;23.360;2024-03-25T02:32:50;93127.63;;;6.63;94.34
6389;BME280;3227;42.654;23.360;2024-03-25T02:35:17;93134.34;;;6.72;95.72
6389;BME280;3227;42.654;23.360;2024-03-25T02:37:43;93135.97;;;6.82;94.34
6389;BME280;3227;42.654;23.360;2024-03-25T02:40:10;93136.59;;;7.04;94.48
6389;BME280;3227;42.654;23.360;2024-03-25T02:42:37;93138.06;;;7.29;93.51
6389;BME280;3227;42.654;23.360;2024-03-25T02:45:08;93141.22;;;7.51;92.48
6389;BME280;3227;42.654;23.360;2024-03-25T02:47:33;93140.41;;;7.47;90.20
6389;BME280;3227;42.654;23.360;2024-03-25T02:50:00;93150.88;;;7.23;88.75
6389;BME280;3227;42.654;23.360;2024-03-25T02:52:26;93154.34;;;7.16;92.01
6389;BME280;3227;42.654;23.360;2024-03-25T02:54:52;93153.44;;;7.18;91.46
6389;BME280;3227;42.654;23.360;2024-03-25T02:57:19;93156.84;;;7.19;91.89
6389;BME280;3227;42.654;23.360;2024-03-25T02:59:46;93153.44;;;7.20;91.98
6389;BME280;3227;42.654;23.360;2024-03-25T03:02:13;93154.09;;;7.37;91.75
6389;BME280;3227;42.654;23.360;2024-03-25T03:04:40;93169.41;;;7.36;91.02
6389;BME280;3227;42.654;23.360;2024-03-25T03:07:06;93137.34;;;7.16;89.73
6389;BME280;3227;42.654;23.360;2024-03-25T03:09:32;93173.63;;;7.38;89.52
6389;BME280;3227;42.654;23.360;2024-03-25T03:11:58;93189.88;;;7.28;89.32
6389;BME280;3227;42.654;23.360;2024-03-25T03:14:25;93179.72;;;7.23;86.63
6389;BME280;3227;42.654;23.360;2024-03-25T03:16:51;93181.53;;;7.12;86.54
6389;BME280;3227;42.654;23.360;2024-03-25T03:19:21;93177.28;;;7.13;86.27
6389;BME280;3227;42.654;23.360;2024-03-25T03:21:46;93176.56;;;6.94;86.36
6389;BME280;3227;42.654;23.360;2024-03-25T03:24:13;93168.91;;;6.99;87.92
6389;BME280;3227;42.654;23.360;2024-03-25T03:26:39;93167.09;;;7.10;90.06
6389;BME280;3227;42.654;23.360;2024-03-25T03:29:05;93180.56;;;7.24;86.43
6389;BME280;3227;42.654;23.360;2024-03-25T03:31:31;93151.94;;;6.96;86.83
6389;BME280;3227;42.654;23.360;2024-03-25T03:33:58;93192.41;;;7.31;88.12
6389;BME280;3227;42.654;23.360;2024-03-25T03:36:25;93196.50;;;7.43;87.41
6389;BME280;3227;42.654;23.360;2024-03-25T03:38:52;93187.22;;;7.40;85.77
6389;BME280;3227;42.654;23.360;2024-03-25T03:41:18;93192.56;;;7.13;84.60
6389;BME280;3227;42.654;23.360;2024-03-25T03:43:44;93194.09;;;7.29;86.41
6389;BME280;3227;42.654;23.360;2024-03-25T03:46:10;93150.91;;;7.17;88.15
6389;BME280;3227;42.654;23.360;2024-03-25T03:48:37;93196.44;;;7.50;86.25
6389;BME280;3227;42.654;23.360;2024-03-25T03:51:03;93204.06;;;7.55;84.47
6389;BME280;3227;42.654;23.360;2024-03-25T03:53:31;93201.44;;;7.59;85.14
6389;BME280;3227;42.654;23.360;2024-03-25T03:55:59;93202.22;;;7.68;84.31
6389;BME280;3227;42.654;23.360;2024-03-25T03:58:27;93127.22;;;7.09;81.48
6389;BME280;3227;42.654;23.360;2024-03-25T04:00:53;93203.22;;;7.53;83.70
6389;BME280;3227;42.654;23.360;2024-03-25T04:03:20;93209.06;;;7.62;83.60
6389;BME280;3227;42.654;23.360;2024-03-25T04:05:46;93214.19;;;7.59;85.00
6389;BME280;3227;42.654;23.360;2024-03-25T04:08:13;93235.34;;;7.68;83.77
6389;BME280;3227;42.654;23.360;2024-03-25T04:10:40;93224.56;;;7.41;81.82
6389;BME280;3227;42.654;23.360;2024-03-25T04:13:07;93134.19;;;6.92;82.50
6389;BME280;3227;42.654;23.360;2024-03-25T04:15:33;93221.97;;;7.47;83.60
6389;BME280;3227;42.654;23.360;2024-03-25T04:18:00;93237.25;;;7.49;82.22
6389;BME280;3227;42.654;23.360;2024-03-25T04:20:26;93235.56;;;7.45;82.02
6389;BME280;3227;42.654;23.360;2024-03-25T04:22:53;93238.13;;;7.46;81.94
6389;BME280;3227;42.654;23.360;2024-03-25T04:25:19;93155.34;;;6.94;81.62
6389;BME280;3227;42.654;23.360;2024-03-25T04:27:47;93240.03;;;7.23;80.90
6389;BME280;3227;42.654;23.360;2024-03-25T04:30:13;93249.34;;;7.24;81.22
6389;BME280;3227;42.654;23.360;2024-03-25T04:32:40;93231.69;;;7.03;80.96
6389;BME280;3227;42.654;23.360;2024-03-25T04:35:07;93251.16;;;7.10;83.39
6389;BME280;3227;42.654;23.360;2024-03-25T04:37:35;93253.63;;;7.19;82.63
6389;BME280;3227;42.654;23.360;2024-03-25T04:40:01;93272.28;;;7.21;82.43
6389;BME280;3227;42.654;23.360;2024-03-25T04:42:27;93279.94;;;7.22;80.41
6389;BME280;3227;42.654;23.360;2024-03-25T04:44:54;93275.75;;;7.09;82.22
6389;BME280;3227;42.654;23.360;2024-03-25T04:47:20;93290.13;;;7.19;83.19
6389;BME280;3227;42.654;23.360;2024-03-25T04:49:57;93222.53;;;6.77;80.68
6389;BME280;3227;42.654;23.360;2024-03-25T04:52:23;93298.69;;;7.12;81.25
6389;BME280;3227;42.654;23.360;2024-03-25T04:54:49;93284.31;;;7.01;81.38
6389;BME280;3227;42.654;23.360;2024-03-25T04:57:15;93267.50;;;6.78;81.82
6389;BME280;3227;42.654;23.360;2024-03-25T04:59:41;93206.63;;;6.46;81.24
6389;BME280;3227;42.654;23.360;2024-03-25T05:02:08;93304.69;;;7.04;82.22
6389;BME280;3227;42.654;23.360;2024-03-25T05:04:34;93308.88;;;7.09;80.75
6389;BME280;3227;42.654;23.360;2024-03-25T05:07:00;93309.69;;;7.16;81.91
6389;BME280;3227;42.654;23.360;2024-03-25T05:09:25;93308.03;;;7.12;80.40
6389;BME280;3227;42.654;23.360;2024-03-25T05:11:51;93299.53;;;7.10;82.01
6389;BME280;3227;42.654;23.360;2024-03-25T05:14:17;93304.59;;;7.16;81.06
6389;BME280;3227;42.654;23.360;2024-03-25T05:16:42;93305.47;;;7.16;80.17
6389;BME280;3227;42.654;23.360;2024-03-25T05:19:10;93313.22;;;7.00;79.63
6389;BME280;3227;42.654;23.360;2024-03-25T05:21:35;93295.47;;;6.83;81.01
6389;BME280;3227;42.654;23.360;2024-03-25T05:24:01;93310.63;;;7.06;80.94
6389;BME280;3227;42.654;23.360;2024-03-25T05:26:27;93302.91;;;7.15;80.11
6389;BME280;3227;42.654;23.360;2024-03-25T05:28:53;93318.16;;;7.21;79.31
6389;BME280;3227;42.654;23.360;2024-03-25T05:31:18;93298.59;;;7.24;79.66
6389;BME280;3227;42.654;23.360;2024-03-25T05:33:44;93323.94;;;7.41;77.82
6389;BME280;3227;42.654;23.360;2024-03-25T05:36:11;93323.22;;;7.24;77.93
6389;BME280;3227;42.654;23.360;2024-03-25T05:38:37;93324.16;;;7.14;78.96
6389;BME280;3227;42.654;23.360;2024-03-25T05:41:03;93332.59;;;7.17;78.01
6389;BME280;3227;42.654;23.360;2024-03-25T05:43:30;93310.44;;;7.30;79.45
6389;BME280;3227;42.654;23.360;2024-03-25T05:45:56;93323.91;;;7.44;77.01
6389;BME280;3227;42.654;23.360;2024-03-25T05:48:23;93324.81;;;7.40;77.06
6389;BME280;3227;42.654;23.360;2024-03-25T05:50:57;93307.19;;;7.10;76.08
6389;BME280;3227;42.654;23.360;2024-03-25T05:53:26;93249.78;;;6.63;76.91
6389;BME280;3227;42.654;23.360;2024-03-25T05:55:52;93290.50;;;6.60;76.83
6389;BME280;3227;42.654;23.360;2024-03-25T05:58:18;93347.16;;;6.96;78.50
6389;BME280;3227;42.654;23.360;2024-03-25T06:00:46;93350.56;;;6.95;77.55
6389;BME280;3227;42.654;23.360;2024-03-25T06:03:12;93357.34;;;6.96;77.57
6389;BME280;3227;42.654;23.360;2024-03-25T06:05:38;93365.84;;;6.95;78.14
6389;BME280;3227;42.654;23.360;2024-03-25T06:08:04;93349.72;;;6.96;77.11
6389;BME280;3227;42.654;23.360;2024-03-25T06:10:36;93325.09;;;6.99;77.28
6389;BME280;3227;42.654;23.360;2024-03-25T06:13:02;93378.28;;;7.49;77.71
6389;BME280;3227;42.654;23.360;2024-03-25T06:15:28;93387.63;;;7.41;75.41
6389;BME280;3227;42.654;23.360;2024-03-25T06:17:53;93390.31;;;7.24;75.75
6389;BME280;3227;42.654;23.360;2024-03-25T06:20:19;93394.56;;;7.22;76.87
6389;BME280;3227;42.654;23.360;2024-03-25T06:22:45;93399.56;;;7.39;77.71
6389;BME280;3227;42.654;23.360;2024-03-25T06:25:11;93350.13;;;7.61;75.32
6389;BME280;3227;42.654;23.360;2024-03-25T06:27:38;93390.41;;;8.22;73.92
6389;BME280;3227;42.654;23.360;2024-03-25T06:30:04;93402.72;;;8.65;71.86
6389;BME280;3227;42.654;23.360;2024-03-25T06:32:46;93378.97;;;8.60;69.04
6389;BME280;3227;42.654;23.360;2024-03-25T06:35:35;93400.19;;;8.65;69.51
6389;BME280;3227;42.654;23.360;2024-03-25T06:38:01;93417.09;;;8.76;67.29
6389;BME280;3227;42.654;23.360;2024-03-25T06:40:34;93419.72;;;8.69;67.60
6389;BME280;3227;42.654;23.360;2024-03-25T06:43:01;93425.38;;;8.97;68.49
6389;BME280;3227;42.654;23.360;2024-03-25T06:45:27;93427.75;;;9.12;66.43
6389;BME280;3227;42.654;23.360;2024-03-25T06:47:53;93421.91;;;9.02;66.76
6389;BME280;3227;42.654;23.360;2024-03-25T06:50:19;93441.78;;;8.76;66.76
6389;BME280;3227;42.654;23.360;2024-03-25T06:52:45;93433.75;;;9.06;68.23
6389;BME280;3227;42.654;23.360;2024-03-25T06:55:10;93436.84;;;9.33;66.11
6389;BME280;3227;42.654;23.360;2024-03-25T06:57:36;93443.53;;;9.44;65.16
6389;BME280;3227;42.654;23.360;2024-03-25T07:00:04;93433.16;;;9.55;65.35
6389;BME280;3227;42.654;23.360;2024-03-25T07:02:30;93442.94;;;9.87;66.19
6389;BME280;3227;42.654;23.360;2024-03-25T07:04:56;93428.00;;;10.13;63.72
6389;BME280;3227;42.654;23.360;2024-03-25T07:07:22;93442.69;;;10.02;63.03
6389;BME280;3227;42.654;23.360;2024-03-25T07:09:47;93445.88;;;10.18;61.78
6389;BME280;3227;42.654;23.360;2024-03-25T07:12:13;93439.66;;;10.33;62.38
6389;BME280;3227;42.654;23.360;2024-03-25T07:14:39;93448.78;;;10.47;61.27
6389;BME280;3227;42.654;23.360;2024-03-25T07:17:06;93438.47;;;10.53;61.66
6389;BME280;3227;42.654;23.360;2024-03-25T07:19:32;93443.34;;;10.65;60.50
6389;BME280;3227;42.654;23.360;2024-03-25T07:21:57;93427.25;;;10.59;60.88
6389;BME280;3227;42.654;23.360;2024-03-25T07:24:33;93449.03;;;10.81;58.92
6389;BME280;3227;42.654;23.360;2024-03-25T07:26:59;93463.53;;;10.84;59.03
6389;BME280;3227;42.654;23.360;2024-03-25T07:29:25;93443.53;;;11.02;58.83
6389;BME280;3227;42.654;23.360;2024-03-25T07:31:50;93461.78;;;11.30;59.12
6389;BME280;3227;42.654;23.360;2024-03-25T07:34:18;93459.66;;;11.07;58.88
6389;BME280;3227;42.654;23.360;2024-03-25T07:36:43;93458.75;;;11.12;58.76
6389;BME280;3227;42.654;23.360;2024-03-25T07:39:09;93464.34;;;11.29;58.20
6389;BME280;3227;42.654;23.360;2024-03-25T07:41:35;93461.69;;;11.35;57.41
6389;BME280;3227;42.654;23.360;2024-03-25T07:44:01;93465.00;;;11.40;58.17
6389;BME280;3227;42.654;23.360;2024-03-25T07:46:26;93464.03;;;11.45;56.74
6389;BME280;3227;42.654;23.360;2024-03-25T07:48:52;93457.47;;;11.32;55.67
6389;BME280;3227;42.654;23.360;2024-03-25T07:51:19;93470.47;;;11.22;56.45
6389;BME280;3227;42.654;23.360;2024-03-25T07:53:45;93469.38;;;11.36;56.71
6389;BME280;3227;42.654;23.360;2024-03-25T07:56:11;93473.81;;;11.27;56.33
6389;BME280;3227;42.654;23.360;2024-03-25T07:58:36;93478.91;;;11.28;56.78
6389;BME280;3227;42.654;23.360;2024-03-25T08:01:02;93474.66;;;11.27;55.94
6389;BME280;3227;42.654;23.360;2024-03-25T08:03:28;93472.13;;;11.26;56.39
6389;BME280;3227;42.654;23.360;2024-03-25T08:05:54;93487.25;;;11.38;59.57
6389;BME280;3227;42.654;23.360;2024-03-25T08:08:21;93482.19;;;11.36;56.01
6389;BME280;3227;42.654;23.360;2024-03-25T08:10:47;93476.06;;;11.43;55.70
6389;BME280;3227;42.654;23.360;2024-03-25T08:13:13;93476.09;;;11.40;55.15
6389;BME280;3227;42.654;23.360;2024-03-25T08:15:38;93481.22;;;11.40;55.22
6389;BME280;3227;42.654;23.360;2024-03-25T08:18:04;93460.16;;;11.26;55.25
6389;BME280;3227;42.654;23.360;2024-03-25T08:20:30;93483.22;;;11.26;55.52
6389;BME280;3227;42.654;23.360;2024-03-25T08:22:56;93490.16;;;11.63;57.04
6389;BME280;3227;42.654;23.360;2024-03-25T08:25:23;93486.25;;;11.88;54.70
6389;BME280;3227;42.654;23.360;2024-03-25T08:27:49;93318.41;;;10.80;53.92
6389;BME280;3227;42.654;23.360;2024-03-25T08:30:15;93371.47;;;11.16;55.31
6389;BME280;3227;42.654;23.360;2024-03-25T08:32:40;93481.09;;;11.47;54.67
6389;BME280;3227;42.654;23.360;2024-03-25T08:35:11;93485.06;;;11.61;55.14
6389;BME280;3227;42.654;23.360;2024-03-25T08:37:37;93496.84;;;11.71;53.87
6389;BME280;3227;42.654;23.360;2024-03-25T08:40:04;93504.41;;;11.79;55.55
6389;BME280;3227;42.654;23.360;2024-03-25T08:42:31;93497.38;;;11.87;52.98
6389;BME280;3227;42.654;23.360;2024-03-25T08:44:57;93500.34;;;12.09;52.98
6389;BME280;3227;42.654;23.360;2024-03-25T08:47:23;93500.03;;;12.23;52.68
6389;BME280;3227;42.654;23.360;2024-03-25T08:49:48;93502.16;;;12.04;50.85
6389;BME280;3227;42.654;23.360;2024-03-25T08:52:14;93503.25;;;11.94;52.86
6389;BME280;3227;42.654;23.360;2024-03-25T08:54:40;93468.91;;;11.58;52.12
6389;BME280;3227;42.654;23.360;2024-03-25T08:57:05;93506.69;;;11.50;53.55
6389;BME280;3227;42.654;23.360;2024-03-25T08:59:32;93392.84;;;10.72;53.57
6389;BME280;3227;42.654;23.360;2024-03-25T09:01:58;93490.94;;;11.26;53.42
6389;BME280;3227;42.654;23.360;2024-03-25T09:04:24;93512.22;;;11.28;53.54
6389;BME280;3227;42.654;23.360;2024-03-25T09:06:50;93507.22;;;10.76;54.38
6389;BME280;3227;42.654;23.360;2024-03-25T09:09:15;93506.66;;;10.59;56.55
6389;BME280;3227;42.654;23.360;2024-03-25T09:12:00;93516.75;;;10.68;55.42
6389;BME280;3227;42.654;23.360;2024-03-25T09:14:30;93507.13;;;10.81;55.72
6389;BME280;3227;42.654;23.360;2024-03-25T09:16:58;93506.16;;;10.88;55.12
6389;BME280;3227;42.654;23.360;2024-03-25T09:19:23;93512.81;;;10.96;55.57
6389;BME280;3227;42.654;23.360;2024-03-25T09:21:49;93521.69;;;11.26;53.85
6389;BME280;3227;42.654;23.360;2024-03-25T09:24:15;93536.03;;;11.36;54.20
6389;BME280;3227;42.654;23.360;2024-03-25T09:26:41;93520.69;;;11.33;54.07
6389;BME280;3227;42.654;23.360;2024-03-25T09:29:06;93407.06;;;10.42;53.89
6389;BME280;3227;42.654;23.360;2024-03-25T09:31:32;93526.50;;;10.97;54.17
6389;BME280;3227;42.654;23.360;2024-03-25T09:33:59;93426.81;;;10.36;55.12
6389;BME280;3227;42.654;23.360;2024-03-25T09:36:25;93342.34;;;9.83;54.58
6389;BME280;3227;42.654;23.360;2024-03-25T09:38:51;93518.81;;;10.95;54.22
6389;BME280;3227;42.654;23.360;2024-03-25T09:41:17;93543.75;;;10.87;53.81
6389;BME280;3227;42.654;23.360;2024-03-25T09:43:43;93540.94;;;11.02;53.05
6389;BME280;3227;42.654;23.360;2024-03-25T09:46:09;93545.06;;;11.10;52.91
6389;BME280;3227;42.654;23.360;2024-03-25T09:48:36;93541.34;;;11.27;52.92
6389;BME280;3227;42.654;23.360;2024-03-25T09:51:04;93504.19;;;11.03;52.56
6389;BME280;3227;42.654;23.360;2024-03-25T09:53:30;93536.09;;;11.33;52.25
6389;BME280;3227;42.654;23.360;2024-03-25T09:55:56;93382.38;;;10.38;51.79
6389;BME280;3227;42.654;23.360;2024-03-25T09:58:22;93539.31;;;11.44;52.11
6389;BME280;3227;42.654;23.360;2024-03-25T10:00:50;93537.66;;;11.40;52.81
6389;BME280;3227;42.654;23.360;2024-03-25T10:03:15;93537.22;;;11.62;52.27
6389;BME280;3227;42.654;23.360;2024-03-25T10:05:41;93535.28;;;11.73;52.66
6389;BME280;3227;42.654;23.360;2024-03-25T10:08:08;93540.59;;;12.07;51.42
6389;BME280;3227;42.654;23.360;2024-03-25T10:10:34;93549.09;;;12.10;51.37
6389;BME280;3227;42.654;23.360;2024-03-25T10:13:00;93549.47;;;11.94;50.26
6389;BME280;3227;42.654;23.360;2024-03-25T10:15:27;93554.22;;;11.69;50.06
6389;BME280;3227;42.654;23.360;2024-03-25T10:17:53;93554.06;;;11.32;51.35
6389;BME280;3227;42.654;23.360;2024-03-25T10:20:19;93554.50;;;11.54;52.05
6389;BME280;3227;42.654;23.360;2024-03-25T10:22:45;93426.09;;;10.75;49.78
6389;BME280;3227;42.654;23.360;2024-03-25T10:25:23;93540.91;;;11.50;49.71
6389;BME280;3227;42.654;23.360;2024-03-25T10:27:56;93556.41;;;11.44;49.85
6389;BME280;3227;42.654;23.360;2024-03-25T10:30:22;93491.56;;;10.93;49.40
6389;BME280;3227;42.654;23.360;2024-03-25T10:32:58;93550.38;;;11.45;49.90
6389;BME280;3227;42.654;23.360;2024-03-25T10:35:26;93560.25;;;11.65;48.66
6389;BME280;3227;42.654;23.360;2024-03-25T10:37:54;93545.13;;;11.94;49.44
6389;BME280;3227;42.654;23.360;2024-03-25T10:40:26;93541.44;;;12.07;48.49
6389;BME280;3227;42.654;23.360;2024-03-25T10:43:00;93550.81;;;12.10;46.15
6389;BME280;3227;42.654;23.360;2024-03-25T10:45:28;93547.00;;;11.88;46.61
6389;BME280;3227;42.654;23.360;2024-03-25T10:47:56;93552.25;;;11.83;47.44
6389;BME280;3227;42.654;23.360;2024-03-25T10:50:25;93437.00;;;11.29;46.40
6389;BME280;3227;42.654;23.360;2024-03-25T10:52:54;93551.34;;;12.26;46.11
6389;BME280;3227;42.654;23.360;2024-03-25T10:55:37;93541.22;;;12.55;46.95
6389;BME280;3227;42.654;23.360;2024-03-25T10:58:03;93549.53;;;12.66;43.66
6389;BME280;3227;42.654;23.360;2024-03-25T11:00:29;93541.88;;;12.63;43.13
6389;BME280;3227;42.654;23.360;2024-03-25T11:02:56;93544.50;;;12.62;42.77
6389;BME280;3227;42.654;23.360;2024-03-25T11:05:22;93547.78;;;12.68;43.84
6389;BME280;3227;42.654;23.360;2024-03-25T11:07:48;93529.78;;;12.68;42.79
6389;BME280;3227;42.654;23.360;2024-03-25T11:10:15;93545.53;;;12.53;42.67
6389;BME280;3227;42.654;23.360;2024-03-25T11:12:42;93543.53;;;12.29;43.36
6389;BME280;3227;42.654;23.360;2024-03-25T11:15:09;93537.00;;;12.15;43.14
6389;BME280;3227;42.654;23.360;2024-03-25T11:17:35;93540.75;;;12.01;43.41
6389;BME280;3227;42.654;23.360;2024-03-25T11:20:09;93536.19;;;12.13;43.69
6389;BME280;3227;42.654;23.360;2024-03-25T11:22:35;93529.28;;;12.15;43.78
6389;BME280;3227;42.654;23.360;2024-03-25T11:25:05;93537.41;;;11.96;45.26
6389;BME280;3227;42.654;23.360;2024-03-25T11:27:33;93539.53;;;12.17;45.14
6389;BME280;3227;42.654;23.360;2024-03-25T11:30:01;93541.72;;;12.34;45.84
6389;BME280;3227;42.654;23.360;2024-03-25T11:32:27;93521.53;;;12.18;45.50
6389;BME280;3227;42.654;23.360;2024-03-25T11:34:53;93555.03;;;12.51;47.28
6389;BME280;3227;42.654;23.360;2024-03-25T11:37:18;93514.44;;;11.90;47.31
6389;BME280;3227;42.654;23.360;2024-03-25T11:39:44;93565.94;;;11.82;48.20
6389;BME280;3227;42.654;23.360;2024-03-25T11:42:12;93565.25;;;11.72;48.99
6389;BME280;3227;42.654;23.360;2024-03-25T11:44:38;93550.75;;;11.70;47.10
6389;BME280;3227;42.654;23.360;2024-03-25T11:47:07;93558.44;;;11.70;48.45
6389;BME280;3227;42.654;23.360;2024-03-25T11:49:33;93554.25;;;11.66;49.35
6389;BME280;3227;42.654;23.360;2024-03-25T11:51:59;93561.00;;;11.70;50.21
6389;BME280;3227;42.654;23.360;2024-03-25T11:54:27;93546.41;;;11.75;50.92
6389;BME280;3227;42.654;23.360;2024-03-25T11:56:53;93561.19;;;12.05;49.73
6389;BME280;3227;42.654;23.360;2024-03-25T11:59:19;93519.72;;;11.84;50.73
6389;BME280;3227;42.654;23.360;2024-03-25T12:01:45;93435.97;;;11.38;50.72
6389;BME280;3227;42.654;23.360;2024-03-25T12:04:17;93555.50;;;11.91;51.21
6389;BME280;3227;42.654;23.360;2024-03-25T12:06:43;93490.91;;;11.28;50.75
6389;BME280;3227;42.654;23.360;2024-03-25T12:09:10;93569.00;;;11.56;49.70
6389;BME280;3227;42.654;23.360;2024-03-25T12:11:54;93539.41;;;11.38;50.55
6389;BME280;3227;42.654;23.360;2024-03-25T12:14:21;93559.56;;;11.57;48.84
6389;BME280;3227;42.654;23.360;2024-03-25T12:17:05;93552.69;;;11.59;48.47
6389;BME280;3227;42.654;23.360;2024-03-25T12:19:32;93456.03;;;10.73;48.64
6389;BME280;3227;42.654;23.360;2024-03-25T12:22:01;93549.81;;;11.29;48.85
6389;BME280;3227;42.654;23.360;2024-03-25T12:24:27;93554.00;;;11.36;48.79
6389;BME280;3227;42.654;23.360;2024-03-25T12:26:53;93563.50;;;11.28;49.88
6389;BME280;3227;42.654;23.360;2024-03-25T12:29:19;93566.88;;;11.33;49.23
6389;BME280;3227;42.654;23.360;2024-03-25T12:31:54;93564.56;;;11.20;50.03
6389;BME280;3227;42.654;23.360;2024-03-25T12:34:20;93553.25;;;11.28;50.03
6389;BME280;3227;42.654;23.360;2024-03-25T12:36:48;93561.47;;;11.45;50.91
6389;BME280;3227;42.654;23.360;2024-03-25T12:39:17;93567.97;;;11.65;49.40
6389;BME280;3227;42.654;23.360;2024-03-25T12:41:43;93567.78;;;11.77;48.82
6389;BME280;3227;42.654;23.360;2024-03-25T12:44:11;93572.06;;;11.75;46.95
6389;BME280;3227;42.654;23.360;2024-03-25T12:46:37;93575.47;;;11.77;46.78
6389;BME280;3227;42.654;23.360;2024-03-25T12:49:03;93561.13;;;11.64;47.37
6389;BME280;3227;42.654;23.360;2024-03-25T12:51:29;93571.34;;;11.67;48.08
6389;BME280;3227;42.654;23.360;2024-03-25T12:53:56;93571.66;;;11.52;47.43
6389;BME280;3227;42.654;23.360;2024-03-25T12:56:22;93578.75;;;11.37;47.76
6389;BME280;3227;42.654;23.360;2024-03-25T12:58:48;93576.38;;;11.27;47.31
6389;BME280;3227;42.654;23.360;2024-03-25T13:01:14;93571.44;;;11.16;46.91
6389;BME280;3227;42.654;23.360;2024-03-25T13:03:59;93575.91;;;11.05;47.70
6389;BME280;3227;42.654;23.360;2024-03-25T13:06:25;93579.03;;;11.22;47.75
6389;BME280;3227;42.654;23.360;2024-03-25T13:08:51;93569.97;;;11.51;48.29
6389;BME280;3227;42.654;23.360;2024-03-25T13:11:18;93583.31;;;11.68;46.55
6389;BME280;3227;42.654;23.360;2024-03-25T13:13:44;93586.66;;;11.71;40.42
6389;BME280;3227;42.654;23.360;2024-03-25T13:16:10;93573.41;;;11.50;43.09
6389;BME280;3227;42.654;23.360;2024-03-25T13:18:35;93596.50;;;11.48;44.43